createdAt,value
2023-03-06T00:01:54.148Z,75.85
2023-03-06T00:04:20.803Z,78.38
2023-03-06T00:06:47.307Z,85.85
2023-03-06T00:09:13.882Z,67.25
2023-03-06T00:11:40.392Z,79.88
2023-03-06T00:14:06.892Z,81.72
2023-03-06T00:16:33.565Z,96.20
2023-03-06T00:19:00.125Z,102.32
2023-03-06T00:21:26.663Z,91.82
2023-03-06T00:23:53.310Z,85.18
2023-03-06T00:26:19.789Z,88.47
2023-03-06T00:28:46.355Z,90.68
2023-03-06T00:31:13.287Z,91.00
2023-03-06T00:33:40.992Z,98.32
2023-03-06T00:36:08.471Z,102.00
2023-03-06T00:38:35.335Z,104.47
2023-03-06T00:41:12.184Z,101.50
2023-03-06T00:43:39.037Z,91.30
2023-03-06T00:46:06.092Z,83.47
2023-03-06T00:48:33.953Z,106.53
2023-03-06T00:51:00.878Z,95.18
2023-03-06T00:53:27.695Z,92.32
2023-03-06T00:55:56.525Z,100.93
2023-03-06T00:58:23.427Z,95.28
2023-03-06T01:00:50.194Z,96.38
2023-03-06T01:03:16.697Z,97.10
2023-03-06T01:05:43.516Z,108.50
2023-03-06T01:08:10.048Z,93.70
2023-03-06T01:10:40.793Z,90.13
2023-03-06T01:13:07.335Z,93.15
2023-03-06T01:15:33.923Z,96.47
2023-03-06T01:18:00.826Z,102.40
2023-03-06T01:20:27.799Z,115.38
2023-03-06T01:22:54.331Z,108.15
2023-03-06T01:25:21.099Z,109.47
2023-03-06T01:27:47.651Z,114.55
2023-03-06T01:30:14.273Z,98.70
2023-03-06T01:32:40.852Z,107.57
2023-03-06T01:35:08.102Z,122.88
2023-03-06T01:37:36.467Z,120.75
2023-03-06T01:40:03.332Z,103.03
2023-03-06T01:42:32.024Z,100.70
2023-03-06T01:45:07.321Z,112.00
2023-03-06T01:47:33.973Z,95.50
2023-03-06T01:50:01.538Z,83.40
2023-03-06T01:52:33.268Z,82.72
2023-03-06T01:55:04.353Z,80.15
2023-03-06T01:57:34.316Z,92.72
2023-03-06T02:00:23.241Z,82.97
2023-03-06T02:03:01.309Z,90.32
2023-03-06T02:05:27.842Z,77.47
2023-03-06T02:07:54.610Z,84.80
2023-03-06T02:10:21.234Z,93.93
2023-03-06T02:12:48.366Z,97.45
2023-03-06T02:15:18.333Z,107.35
2023-03-06T02:17:46.106Z,111.55
2023-03-06T02:20:36.320Z,98.85
2023-03-06T02:23:20.984Z,85.85
2023-03-06T02:25:49.917Z,102.50
2023-03-06T02:28:19.332Z,86.75
2023-03-06T02:30:48.263Z,88.50
2023-03-06T02:33:17.177Z,89.03
2023-03-06T02:35:47.346Z,87.50
2023-03-06T02:38:15.506Z,92.68
2023-03-06T02:40:44.404Z,109.57
2023-03-06T02:43:11.542Z,85.82
2023-03-06T02:45:41.663Z,121.63
2023-03-06T02:48:08.187Z,113.75
2023-03-06T02:50:34.727Z,87.95
2023-03-06T02:53:01.280Z,102.28
2023-03-06T02:55:27.851Z,97.95
2023-03-06T02:57:54.400Z,97.30
2023-03-06T03:00:21.028Z,100.05
2023-03-06T03:02:47.691Z,100.70
2023-03-06T03:05:14.223Z,100.68
2023-03-06T03:07:40.778Z,107.97
2023-03-06T03:10:07.840Z,90.47
2023-03-06T03:12:34.327Z,89.60
2023-03-06T03:15:01.470Z,90.72
2023-03-06T03:17:28.540Z,99.85
2023-03-06T03:19:55.115Z,90.78
2023-03-06T03:22:21.652Z,102.72
2023-03-06T03:24:48.235Z,110.93
2023-03-06T03:27:15.236Z,95.50
2023-03-06T03:29:41.813Z,78.85
2023-03-06T03:32:08.592Z,92.60
2023-03-06T03:34:35.268Z,87.20
2023-03-06T03:37:01.846Z,90.40
2023-03-06T03:39:28.389Z,97.50
2023-03-06T03:41:54.903Z,112.22
2023-03-06T03:44:21.434Z,99.55
2023-03-06T03:46:48.038Z,89.90
2023-03-06T03:49:14.912Z,89.97
2023-03-06T03:51:41.450Z,84.82
2023-03-06T03:54:07.939Z,88.30
2023-03-06T03:56:34.478Z,117.45
2023-03-06T03:59:01.242Z,90.75
2023-03-06T04:01:27.953Z,103.13
2023-03-06T04:03:54.516Z,98.63
2023-03-06T04:06:21.110Z,104.20
2023-03-06T04:08:47.711Z,111.07
2023-03-06T04:11:14.211Z,100.10
2023-03-06T04:13:40.747Z,119.35
2023-03-06T04:16:07.652Z,108.93
2023-03-06T04:18:34.158Z,103.65
2023-03-06T04:21:00.828Z,115.15
2023-03-06T04:23:27.330Z,86.90
2023-03-06T04:25:54.057Z,90.97
2023-03-06T04:28:20.848Z,91.07
2023-03-06T04:30:47.386Z,92.13
2023-03-06T04:33:13.927Z,114.90
2023-03-06T04:35:40.564Z,100.78
2023-03-06T04:38:07.404Z,110.47
2023-03-06T04:40:36.038Z,102.72
2023-03-06T04:43:03.720Z,102.28
2023-03-06T04:45:31.439Z,95.00
2023-03-06T04:47:58.617Z,97.18
2023-03-06T04:50:27.463Z,115.25
2023-03-06T04:52:54.548Z,106.47
2023-03-06T04:55:21.167Z,106.15
2023-03-06T04:57:47.992Z,93.95
2023-03-06T05:00:21.218Z,105.80
2023-03-06T05:02:48.788Z,106.85
2023-03-06T05:05:16.102Z,99.13
2023-03-06T05:07:43.925Z,107.10
2023-03-06T05:10:12.746Z,91.93
2023-03-06T05:12:39.316Z,113.10
2023-03-06T05:15:07.079Z,100.38
2023-03-06T05:17:34.163Z,107.05
2023-03-06T05:20:00.698Z,88.05
2023-03-06T05:22:27.330Z,83.88
2023-03-06T05:24:53.875Z,81.32
2023-03-06T05:27:20.445Z,93.95
2023-03-06T05:29:47.295Z,85.38
2023-03-06T05:32:13.903Z,99.85
2023-03-06T05:34:40.551Z,85.50
2023-03-06T05:37:07.083Z,82.60
2023-03-06T05:39:33.575Z,89.68
2023-03-06T05:42:00.126Z,86.57
2023-03-06T05:44:34.364Z,88.38
2023-03-06T05:47:01.354Z,88.63
2023-03-06T05:49:32.626Z,86.75
2023-03-06T05:51:59.514Z,91.72
2023-03-06T05:54:26.011Z,103.35
2023-03-06T05:56:52.575Z,99.07
2023-03-06T05:59:19.062Z,99.60
2023-03-06T06:01:45.544Z,105.90
2023-03-06T06:04:12.081Z,108.65
2023-03-06T06:06:38.537Z,124.43
2023-03-06T06:09:05.073Z,97.05
2023-03-06T06:11:31.726Z,102.10
2023-03-06T06:14:03.379Z,103.93
2023-03-06T06:16:30.357Z,94.68
2023-03-06T06:18:57.560Z,105.80
2023-03-06T06:21:24.050Z,86.78
2023-03-06T06:23:50.624Z,94.22
2023-03-06T06:26:17.161Z,85.45
2023-03-06T06:28:44.766Z,106.65
2023-03-06T06:31:12.129Z,91.78
2023-03-06T06:33:40.356Z,97.45
2023-03-06T06:36:15.894Z,86.15
2023-03-06T06:38:42.859Z,96.30
2023-03-06T06:41:38.993Z,99.35
2023-03-06T06:43:58.695Z,94.25
2023-03-06T06:47:17.895Z,94.15
2023-03-06T06:49:14.401Z,93.38
2023-03-06T06:51:41.051Z,84.85
2023-03-06T06:54:07.948Z,86.95
2023-03-06T06:56:34.721Z,89.85
2023-03-06T06:59:15.310Z,89.53
2023-03-06T07:01:42.986Z,88.78
2023-03-06T07:04:12.571Z,83.45
2023-03-06T07:06:39.098Z,68.20
2023-03-06T07:09:05.601Z,75.88
2023-03-06T07:11:32.347Z,72.75
2023-03-06T07:13:58.886Z,74.00
2023-03-06T07:16:25.420Z,73.70
2023-03-06T07:18:51.925Z,75.55
2023-03-06T07:21:18.460Z,71.22
2023-03-06T07:23:45.055Z,71.10
2023-03-06T07:26:11.917Z,70.80
2023-03-06T07:28:52.079Z,71.95
2023-03-06T07:31:24.494Z,70.28
2023-03-06T07:33:54.658Z,74.45
2023-03-06T07:36:22.399Z,74.40
2023-03-06T07:38:49.120Z,71.65
2023-03-06T07:41:16.037Z,70.80
2023-03-06T07:43:43.966Z,71.00
2023-03-06T07:46:10.541Z,66.15
2023-03-06T07:48:37.654Z,77.80
2023-03-06T07:51:10.611Z,70.85
2023-03-06T07:53:37.149Z,69.25
2023-03-06T07:56:05.026Z,82.65
2023-03-06T07:58:33.343Z,69.78
2023-03-06T08:01:07.126Z,77.82
2023-03-06T08:03:34.021Z,72.57
2023-03-06T08:06:10.515Z,70.03
2023-03-06T08:08:38.471Z,69.28
2023-03-06T08:11:06.335Z,70.32
2023-03-06T08:13:32.911Z,66.63
2023-03-06T08:15:59.439Z,66.07
2023-03-06T08:18:27.076Z,74.13
2023-03-06T08:21:11.071Z,71.68
2023-03-06T08:23:38.137Z,72.25
2023-03-06T08:26:07.022Z,64.13
2023-03-06T08:28:34.045Z,69.45
2023-03-06T08:31:27.926Z,65.80
2023-03-06T08:33:55.565Z,64.80
2023-03-06T08:36:22.070Z,61.97
2023-03-06T08:38:48.612Z,69.55
2023-03-06T08:41:15.143Z,59.08
2023-03-06T08:43:42.001Z,65.38
2023-03-06T08:46:10.445Z,59.85
2023-03-06T08:48:37.326Z,59.60
2023-03-06T08:51:03.988Z,58.75
2023-03-06T08:53:42.675Z,61.63
2023-03-06T08:56:26.119Z,55.22
2023-03-06T08:58:53.235Z,64.03
2023-03-06T09:01:25.983Z,63.65
2023-03-06T09:03:57.714Z,61.13
2023-03-06T09:06:24.906Z,61.83
2023-03-06T09:08:52.275Z,58.58
2023-03-06T09:11:20.736Z,56.50
2023-03-06T09:13:47.232Z,56.03
2023-03-06T09:16:13.772Z,60.90
2023-03-06T09:18:40.370Z,59.55
2023-03-06T09:21:08.107Z,55.22
2023-03-06T09:23:35.374Z,57.08
2023-03-06T09:26:02.029Z,61.03
2023-03-06T09:28:29.251Z,55.97
2023-03-06T09:30:56.076Z,55.65
2023-03-06T09:33:22.629Z,55.45
2023-03-06T09:35:53.217Z,57.60
2023-03-06T09:38:21.567Z,53.10
2023-03-06T09:40:57.343Z,59.05
2023-03-06T09:43:34.433Z,66.25
2023-03-06T09:46:06.111Z,61.90
2023-03-06T09:49:12.354Z,57.20
2023-03-06T09:52:16.372Z,61.08
2023-03-06T09:54:45.563Z,59.60
2023-03-06T09:57:33.281Z,58.92
2023-03-06T10:00:04.666Z,58.53
2023-03-06T10:02:51.374Z,59.33
2023-03-06T10:05:27.154Z,56.15
2023-03-06T10:08:04.390Z,59.22
2023-03-06T10:11:04.245Z,51.00
2023-03-06T10:13:51.967Z,54.22
2023-03-06T10:16:18.629Z,58.65
2023-03-06T10:18:45.214Z,59.78
2023-03-06T10:21:28.618Z,59.08
2023-03-06T10:24:17.358Z,115.93
2023-03-06T10:26:52.879Z,53.83
2023-03-06T10:30:01.729Z,55.35
2023-03-06T10:32:51.393Z,66.68
2023-03-06T10:35:20.996Z,64.30
2023-03-06T10:37:48.652Z,57.75
2023-03-06T10:40:21.623Z,63.13
2023-03-06T10:42:49.527Z,64.32
2023-03-06T10:45:19.837Z,57.22
2023-03-06T10:47:46.595Z,92.07
2023-03-06T10:50:23.661Z,58.33
2023-03-06T10:53:02.138Z,52.75
2023-03-06T10:55:31.250Z,60.42
2023-03-06T10:57:57.928Z,55.42
2023-03-06T11:00:24.975Z,55.53
2023-03-06T11:03:21.640Z,53.40
2023-03-06T11:06:02.106Z,57.05
2023-03-06T11:08:29.624Z,51.67
2023-03-06T11:11:01.094Z,54.03
2023-03-06T11:13:30.501Z,54.25
2023-03-06T11:16:05.112Z,46.67
2023-03-06T11:18:40.891Z,58.90
2023-03-06T11:21:31.281Z,57.60
2023-03-06T11:24:18.494Z,48.78
2023-03-06T11:26:54.841Z,46.42
2023-03-06T11:29:24.053Z,54.47
2023-03-06T11:31:56.982Z,48.83
2023-03-06T11:34:38.744Z,52.10
2023-03-06T11:37:23.701Z,45.72
2023-03-06T11:40:00.887Z,47.05
2023-03-06T11:42:31.807Z,48.70
2023-03-06T11:45:07.205Z,45.47
2023-03-06T11:47:37.673Z,40.22
2023-03-06T11:50:34.624Z,37.58
2023-03-06T11:53:08.031Z,41.88
2023-03-06T11:55:45.635Z,40.13
2023-03-06T11:58:39.959Z,41.75
2023-03-06T12:01:10.477Z,44.65
2023-03-06T12:04:07.462Z,42.10
2023-03-06T12:06:36.952Z,46.75
2023-03-06T12:09:12.220Z,46.42
2023-03-06T12:11:48.196Z,41.00
2023-03-06T12:14:49.997Z,43.20
2023-03-06T12:17:55.970Z,42.15
2023-03-06T12:20:43.614Z,43.40
2023-03-06T12:23:39.242Z,45.00
2023-03-06T12:26:25.723Z,41.15
2023-03-06T12:29:10.497Z,42.50
2023-03-06T12:32:05.142Z,37.60
2023-03-06T12:34:40.999Z,44.55
2023-03-06T12:37:16.902Z,39.35
2023-03-06T12:40:09.778Z,44.08
2023-03-06T12:43:04.250Z,39.75
2023-03-06T12:45:34.609Z,41.60
2023-03-06T12:50:35.543Z,35.05
2023-03-06T12:53:04.757Z,42.05
2023-03-06T12:55:39.801Z,41.92
2023-03-06T12:58:29.562Z,38.97
2023-03-06T13:01:16.044Z,34.13
2023-03-06T13:04:03.723Z,37.63
2023-03-06T13:06:39.123Z,45.30
2023-03-06T13:09:19.263Z,37.47
2023-03-06T13:12:13.772Z,32.80
2023-03-06T13:14:48.772Z,36.33
2023-03-06T13:17:20.419Z,37.03
2023-03-06T13:19:48.082Z,34.67
2023-03-06T13:22:26.859Z,39.15
2023-03-06T13:25:21.339Z,32.58
2023-03-06T13:27:53.583Z,38.70
2023-03-06T13:30:20.089Z,34.25
2023-03-06T13:32:47.073Z,27.83
2023-03-06T13:35:39.681Z,35.30
2023-03-06T13:38:40.979Z,32.78
2023-03-06T13:41:22.710Z,35.70
2023-03-06T13:43:51.494Z,32.53
2023-03-06T13:46:23.834Z,32.13
2023-03-06T13:49:15.174Z,38.58
2023-03-06T13:52:10.881Z,33.08
2023-03-06T13:54:52.651Z,32.08
2023-03-06T13:57:56.875Z,24.10
2023-03-06T14:00:57.489Z,26.98
2023-03-06T14:03:38.565Z,26.73
2023-03-06T14:06:34.303Z,24.85
2023-03-06T14:09:02.368Z,21.20
2023-03-06T14:11:29.159Z,23.92
2023-03-06T14:13:56.849Z,23.50
2023-03-06T14:16:29.085Z,25.73
2023-03-06T14:18:57.688Z,20.45
2023-03-06T14:21:32.847Z,23.70
2023-03-06T14:24:04.024Z,23.75
2023-03-06T14:26:33.685Z,26.38
2023-03-06T14:29:01.869Z,23.67
2023-03-06T14:31:34.794Z,22.33
2023-03-06T14:34:04.114Z,27.05
2023-03-06T14:36:45.306Z,20.98
2023-03-06T14:39:41.221Z,20.58
2023-03-06T14:42:20.846Z,25.83
2023-03-06T14:44:49.000Z,26.52
2023-03-06T14:47:30.386Z,27.65
2023-03-06T14:50:25.783Z,26.60
2023-03-06T14:53:18.494Z,21.08
2023-03-06T14:55:50.147Z,21.38
2023-03-06T14:58:20.593Z,25.05
2023-03-06T15:00:50.343Z,23.77
2023-03-06T15:03:43.822Z,23.85
2023-03-06T15:06:23.140Z,23.58
2023-03-06T15:08:58.670Z,25.95
2023-03-06T15:11:26.248Z,25.23
2023-03-06T15:14:01.017Z,23.00
2023-03-06T15:16:30.012Z,19.50
2023-03-06T15:18:59.749Z,24.92
2023-03-06T15:21:26.928Z,24.13
2023-03-06T15:23:55.948Z,18.65
2023-03-06T15:26:38.712Z,22.13
2023-03-06T15:29:11.133Z,19.95
2023-03-06T15:31:45.552Z,24.15
2023-03-06T15:34:18.291Z,21.30
2023-03-06T15:36:50.612Z,22.23
2023-03-06T15:39:38.054Z,25.05
2023-03-06T15:42:22.347Z,23.48
2023-03-06T15:44:57.920Z,20.77
2023-03-06T15:47:24.618Z,21.02
2023-03-06T15:49:54.367Z,18.20
2023-03-06T15:52:21.807Z,18.08
2023-03-06T15:54:48.844Z,19.63
2023-03-06T15:57:27.133Z,21.92
2023-03-06T15:59:55.613Z,22.00
2023-03-06T16:02:23.682Z,18.50
2023-03-06T16:04:50.938Z,16.27
2023-03-06T16:07:18.833Z,16.33
2023-03-06T16:09:46.064Z,19.73
2023-03-06T16:12:17.425Z,17.42
2023-03-06T16:14:45.382Z,17.65
2023-03-06T16:17:12.257Z,16.15
2023-03-06T16:19:39.096Z,15.90
2023-03-06T16:22:05.630Z,15.45
2023-03-06T16:24:32.144Z,15.80
2023-03-06T16:27:01.210Z,16.63
2023-03-06T16:29:28.939Z,13.95
2023-03-06T16:31:57.296Z,15.02
2023-03-06T16:34:24.316Z,16.75
2023-03-06T16:36:51.219Z,15.93
2023-03-06T16:39:20.106Z,17.95
2023-03-06T16:41:46.840Z,14.50
2023-03-06T16:44:13.466Z,14.15
2023-03-06T16:46:42.465Z,16.63
2023-03-06T16:49:15.398Z,14.70
2023-03-06T16:51:41.895Z,17.75
2023-03-06T16:54:08.371Z,14.90
2023-03-06T16:56:34.848Z,17.85
2023-03-06T16:59:01.424Z,13.70
2023-03-06T17:01:28.007Z,15.10
2023-03-06T17:03:54.699Z,18.05
2023-03-06T17:06:22.460Z,13.07
2023-03-06T17:08:50.348Z,12.45
2023-03-06T17:11:18.420Z,14.02
2023-03-06T17:13:47.430Z,13.52
2023-03-06T17:16:14.489Z,15.30
2023-03-06T17:18:42.311Z,14.15
2023-03-06T17:21:09.328Z,12.75
2023-03-06T17:23:36.279Z,13.75
2023-03-06T17:26:07.162Z,13.25
2023-03-06T17:28:34.795Z,17.45
2023-03-06T17:31:02.874Z,16.00
2023-03-06T17:33:29.523Z,15.82
2023-03-06T17:36:00.555Z,13.48
2023-03-06T17:38:27.721Z,16.52
2023-03-06T17:40:54.323Z,14.25
2023-03-06T17:43:21.155Z,13.40
2023-03-06T17:45:47.690Z,12.13
2023-03-06T17:48:14.354Z,12.50
2023-03-06T17:50:40.901Z,13.10
2023-03-06T17:53:07.406Z,17.67
2023-03-06T17:55:33.982Z,17.55
2023-03-06T17:58:00.547Z,17.55
2023-03-06T18:00:27.115Z,18.02
2023-03-06T18:02:53.685Z,17.58
2023-03-06T18:05:20.844Z,21.17
2023-03-06T18:07:48.715Z,18.17
2023-03-06T18:10:17.784Z,18.23
2023-03-06T18:12:45.506Z,21.17
2023-03-06T18:15:12.372Z,21.13
2023-03-06T18:17:39.089Z,17.20
2023-03-06T18:20:06.269Z,17.88
2023-03-06T18:22:32.914Z,41.72
2023-03-06T18:24:59.518Z,21.35
2023-03-06T18:27:26.084Z,20.40
2023-03-06T18:29:52.600Z,17.10
2023-03-06T18:32:19.300Z,16.60
2023-03-06T18:34:45.806Z,23.92
2023-03-06T18:37:12.675Z,24.48
2023-03-06T18:39:39.151Z,17.95
2023-03-06T18:42:05.827Z,13.23
2023-03-06T18:44:32.353Z,17.17
2023-03-06T18:46:58.991Z,17.10
2023-03-06T18:49:25.509Z,16.17
2023-03-06T18:51:52.157Z,16.75
2023-03-06T18:54:18.836Z,15.65
2023-03-06T18:56:45.393Z,17.60
2023-03-06T18:59:18.913Z,19.95
2023-03-06T19:01:46.637Z,17.75
2023-03-06T19:04:15.713Z,20.00
2023-03-06T19:06:42.307Z,16.27
2023-03-06T19:09:08.807Z,15.75
2023-03-06T19:11:35.302Z,18.50
2023-03-06T19:14:01.828Z,15.40
2023-03-06T19:16:29.503Z,13.30
2023-03-06T19:18:56.661Z,16.30
2023-03-06T19:21:25.326Z,15.77
2023-03-06T19:23:54.244Z,17.75
2023-03-06T19:26:23.284Z,16.90
2023-03-06T19:28:52.609Z,15.20
2023-03-06T19:31:23.922Z,18.23
2023-03-06T19:33:51.249Z,15.32
2023-03-06T19:36:21.136Z,15.93
2023-03-06T19:38:47.614Z,17.85
2023-03-06T19:41:15.251Z,14.88
2023-03-06T19:43:43.063Z,16.17
2023-03-06T19:46:13.738Z,16.90
2023-03-06T19:48:41.406Z,16.10
2023-03-06T19:51:08.133Z,15.52
2023-03-06T19:53:34.785Z,16.60
2023-03-06T19:56:06.355Z,17.38
2023-03-06T19:58:33.172Z,14.27
2023-03-06T20:01:11.039Z,16.33
2023-03-06T20:03:40.107Z,17.58
2023-03-06T20:06:06.855Z,15.38
2023-03-06T20:08:33.407Z,18.45
2023-03-06T20:10:59.951Z,18.02
2023-03-06T20:13:26.538Z,16.95
2023-03-06T20:15:53.061Z,18.42
2023-03-06T20:18:19.583Z,15.07
2023-03-06T20:20:46.173Z,15.27
2023-03-06T20:23:14.584Z,15.57
2023-03-06T20:25:42.824Z,16.08
2023-03-06T20:28:09.331Z,17.80
2023-03-06T20:30:38.468Z,20.40
2023-03-06T20:33:05.102Z,18.77
2023-03-06T20:35:31.752Z,17.98
2023-03-06T20:37:58.373Z,20.30
2023-03-06T20:40:26.102Z,18.15
2023-03-06T20:42:52.774Z,16.63
2023-03-06T20:45:19.562Z,17.27
2023-03-06T20:47:46.074Z,19.05
2023-03-06T20:50:14.784Z,17.85
2023-03-06T20:52:41.700Z,20.40
2023-03-06T20:55:09.932Z,18.58
2023-03-06T20:57:39.516Z,16.13
2023-03-06T21:00:06.808Z,21.25
2023-03-06T21:02:33.327Z,16.77
2023-03-06T21:05:00.385Z,17.23
2023-03-06T21:07:26.981Z,18.40
2023-03-06T21:09:53.547Z,16.50
2023-03-06T21:12:20.116Z,19.13
2023-03-06T21:14:46.771Z,18.42
2023-03-06T21:17:15.573Z,16.13
2023-03-06T21:19:42.199Z,21.15
2023-03-06T21:22:08.746Z,20.77
2023-03-06T21:24:35.647Z,17.38
2023-03-06T21:27:04.676Z,19.17
2023-03-06T21:29:34.775Z,23.23
2023-03-06T21:32:01.369Z,29.48
2023-03-06T21:34:28.012Z,16.77
2023-03-06T21:36:54.646Z,22.60
2023-03-06T21:39:21.249Z,22.85
2023-03-06T21:41:47.760Z,21.80
2023-03-06T21:44:14.355Z,21.10
2023-03-06T21:46:40.849Z,26.75
2023-03-06T21:49:07.386Z,25.50
2023-03-06T21:51:34.112Z,20.92
2023-03-06T21:54:00.749Z,21.98
2023-03-06T21:56:27.650Z,24.95
2023-03-06T21:58:56.375Z,18.10
2023-03-06T22:01:25.234Z,17.90
2023-03-06T22:03:52.156Z,16.25
2023-03-06T22:06:23.680Z,17.20
2023-03-06T22:08:52.900Z,18.23
2023-03-06T22:11:21.336Z,17.80
2023-03-06T22:13:48.864Z,16.67
2023-03-06T22:16:15.755Z,17.67
2023-03-06T22:18:46.736Z,16.58
2023-03-06T22:21:15.429Z,21.92
2023-03-06T22:23:42.946Z,28.02
2023-03-06T22:26:11.726Z,21.95
2023-03-06T22:28:38.865Z,16.10
2023-03-06T22:31:13.924Z,23.15
2023-03-06T22:33:41.251Z,22.20
2023-03-06T22:36:12.510Z,18.10
2023-03-06T22:38:41.029Z,23.40
2023-03-06T22:41:08.900Z,21.33
2023-03-06T22:43:36.150Z,20.42
2023-03-06T22:46:09.347Z,18.50
2023-03-06T22:48:35.959Z,22.25
2023-03-06T22:51:04.554Z,16.20
2023-03-06T22:53:31.629Z,19.75
2023-03-06T22:55:59.378Z,19.40
2023-03-06T22:58:26.786Z,21.08
2023-03-06T23:00:53.591Z,19.70
2023-03-06T23:03:20.486Z,19.98
2023-03-06T23:05:46.979Z,18.60
2023-03-06T23:08:13.516Z,32.92
2023-03-06T23:10:40.061Z,21.35
2023-03-06T23:13:06.640Z,20.45
2023-03-06T23:15:35.627Z,18.65
2023-03-06T23:18:02.366Z,19.20
2023-03-06T23:20:29.253Z,16.88
2023-03-06T23:22:56.058Z,17.63
2023-03-06T23:25:22.591Z,15.82
2023-03-06T23:27:49.088Z,19.58
2023-03-06T23:30:15.732Z,18.17
2023-03-06T23:32:44.832Z,17.92
2023-03-06T23:35:12.256Z,19.50
2023-03-06T23:37:38.738Z,18.38
2023-03-06T23:40:05.788Z,19.80
2023-03-06T23:42:32.574Z,16.23
2023-03-06T23:44:59.030Z,20.48
2023-03-06T23:47:25.827Z,16.90
2023-03-06T23:49:52.405Z,17.83
2023-03-06T23:52:18.915Z,17.35
2023-03-06T23:54:48.350Z,18.95
2023-03-06T23:57:16.623Z,17.00
2023-03-06T23:59:43.735Z,17.60
